Aérodrome :
LOGIN :

S'inscrire | Disclaimer

   EN    FR    IT 

 










Légende :    VFR   VFR Marginal   IFR   IFR Intensif   IFR Très Intensif
Visi : 
Plafond : 
>= 8 km
>= 3000ft
5 à 8 km
1000 à 3000 ft
1500m à 5 km
500 à 1000 ft
800 à 1500m
200 à 500 ft
< 800m
< 200 ft
Symboles :   Orages  Brouillard  Fortes neiges  Fortes précipitations  Vent > 20 kt
SIGMETs :   Divers  Orages  Givrage  Turbulence  Onde Orograph.  Cendres Volcan.







- Altitude de l'aérodrome : 13 ft
- Code IATA : CEQ
- Voir les cartes d'approche


LFMD - Cannes Mandelieu

DERNIER METAR :
  • 161430Z AUTO 18006KT 140V200 CAVOK 16/03 Q1030 TEMPO 4000 BR

METARs EXPIRÉS :
  • 161400Z AUTO 18005KT 140V220 CAVOK 17/03 Q1030 NOSIG
  • 161330Z AUTO 19005KT 150V220 CAVOK 17/02 Q1030 NOSIG
  • 161300Z AUTO 19005KT 150V220 CAVOK 17/01 Q1030 NOSIG
  • 161230Z AUTO 18005KT 120V220 CAVOK 17/01 Q1030 NOSIG
  • 161200Z AUTO 20005KT 160V230 CAVOK 18/01 Q1031 NOSIG

TAF TAF LFMD
Valide du 16 à 15h jusqu'au 17 à 15h UTC


161400Z 1615/1715 20006KT CAVOK
PROB30
TEMPO 1615/1618 4000 BR
BECMG 1618/1620 VRB03KT
PROB40
TEMPO 1623/1708 2000 BR BKN010
BECMG 1709/1712 18010KT
ATIS : +33 4 93 48 73 23
Pas de NOTAMs connus pour ce terrain.



MET'MAP, la Météo Aéronautique d'un coup d'oeil ! - Copyright ORBIFLY Décembre 2007 - Disclaimer

ORBIFLY MET'MAP TEAM :

Programmation & Développement : Alexandra Zaïnal
Conception & Développement : Baudouin d'Aumeries
Co-Programmation & Développement : Marc-Olivier Méhu
Soutien technique & logistique : Manuel Goepfert

Contact : metmap@orbifly.com




SOURCES & CREDITS :

   NOAA